sensor_id;sensor_type;location;lat;lon;timestamp;P1;durP1;ratioP1;P2;durP2;ratioP2
25497;SDS011;13406;53.380;7.226;2022-10-28T00:02:17;7.47;;;5.23;;
25497;SDS011;13406;53.380;7.226;2022-10-28T00:04:42;6.47;;;5.03;;
25497;SDS011;13406;53.380;7.226;2022-10-28T00:07:08;7.87;;;5.10;;
25497;SDS011;13406;53.380;7.226;2022-10-28T00:09:33;7.73;;;5.00;;
25497;SDS011;13406;53.380;7.226;2022-10-28T00:11:59;9.23;;;5.03;;
25497;SDS011;13406;53.380;7.226;2022-10-28T00:14:24;14.13;;;5.80;;
25497;SDS011;13406;53.380;7.226;2022-10-28T00:16:50;7.03;;;4.67;;
25497;SDS011;13406;53.380;7.226;2022-10-28T00:19:15;11.80;;;5.43;;
25497;SDS011;13406;53.380;7.226;2022-10-28T00:21:42;11.00;;;6.63;;
25497;SDS011;13406;53.380;7.226;2022-10-28T00:24:08;11.07;;;5.97;;
25497;SDS011;13406;53.380;7.226;2022-10-28T00:26:36;15.97;;;5.97;;
25497;SDS011;13406;53.380;7.226;2022-10-28T00:29:06;8.60;;;5.60;;
25497;SDS011;13406;53.380;7.226;2022-10-28T00:31:33;6.13;;;4.87;;
25497;SDS011;13406;53.380;7.226;2022-10-28T00:34:00;8.40;;;5.30;;
25497;SDS011;13406;53.380;7.226;2022-10-28T00:36:31;14.70;;;6.33;;
25497;SDS011;13406;53.380;7.226;2022-10-28T00:38:58;7.30;;;5.50;;
25497;SDS011;13406;53.380;7.226;2022-10-28T00:43:56;9.10;;;5.13;;
25497;SDS011;13406;53.380;7.226;2022-10-28T00:46:37;9.63;;;6.20;;
25497;SDS011;13406;53.380;7.226;2022-10-28T00:49:15;11.13;;;6.20;;
25497;SDS011;13406;53.380;7.226;2022-10-28T00:51:47;8.90;;;6.17;;
25497;SDS011;13406;53.380;7.226;2022-10-28T00:54:16;8.20;;;5.40;;
25497;SDS011;13406;53.380;7.226;2022-10-28T00:56:43;11.03;;;6.40;;
25497;SDS011;13406;53.380;7.226;2022-10-28T00:59:12;8.80;;;5.87;;
25497;SDS011;13406;53.380;7.226;2022-10-28T01:01:45;8.93;;;5.87;;
25497;SDS011;13406;53.380;7.226;2022-10-28T01:04:11;9.20;;;7.00;;
25497;SDS011;13406;53.380;7.226;2022-10-28T01:06:37;7.37;;;6.03;;
25497;SDS011;13406;53.380;7.226;2022-10-28T01:09:03;10.27;;;5.93;;
25497;SDS011;13406;53.380;7.226;2022-10-28T01:11:37;6.40;;;5.63;;
25497;SDS011;13406;53.380;7.226;2022-10-28T01:14:14;9.30;;;5.43;;
25497;SDS011;13406;53.380;7.226;2022-10-28T01:22:50;12.10;;;5.83;;
25497;SDS011;13406;53.380;7.226;2022-10-28T01:30:20;12.57;;;6.60;;
25497;SDS011;13406;53.380;7.226;2022-10-28T01:38:14;9.90;;;6.57;;
25497;SDS011;13406;53.380;7.226;2022-10-28T01:43:28;12.50;;;6.47;;
25497;SDS011;13406;53.380;7.226;2022-10-28T01:46:00;9.03;;;5.90;;
25497;SDS011;13406;53.380;7.226;2022-10-28T01:48:50;12.20;;;6.50;;
25497;SDS011;13406;53.380;7.226;2022-10-28T01:51:25;10.03;;;5.60;;
25497;SDS011;13406;53.380;7.226;2022-10-28T01:53:58;12.50;;;6.60;;
25497;SDS011;13406;53.380;7.226;2022-10-28T01:56:29;10.70;;;6.10;;
25497;SDS011;13406;53.380;7.226;2022-10-28T01:59:00;9.07;;;6.67;;
25497;SDS011;13406;53.380;7.226;2022-10-28T02:01:27;6.57;;;5.53;;
25497;SDS011;13406;53.380;7.226;2022-10-28T02:03:54;8.40;;;5.83;;
25497;SDS011;13406;53.380;7.226;2022-10-28T02:06:23;9.23;;;6.80;;
25497;SDS011;13406;53.380;7.226;2022-10-28T02:08:53;10.60;;;6.47;;
25497;SDS011;13406;53.380;7.226;2022-10-28T02:11:28;9.33;;;6.60;;
25497;SDS011;13406;53.380;7.226;2022-10-28T02:14:06;8.27;;;6.93;;
25497;SDS011;13406;53.380;7.226;2022-10-28T02:24:38;14.30;;;7.30;;
25497;SDS011;13406;53.380;7.226;2022-10-28T02:27:17;14.60;;;6.60;;
25497;SDS011;13406;53.380;7.226;2022-10-28T02:30:07;11.57;;;6.90;;
25497;SDS011;13406;53.380;7.226;2022-10-28T02:32:35;10.10;;;6.70;;
25497;SDS011;13406;53.380;7.226;2022-10-28T02:35:05;8.57;;;6.40;;
25497;SDS011;13406;53.380;7.226;2022-10-28T02:37:37;8.90;;;6.10;;
25497;SDS011;13406;53.380;7.226;2022-10-28T02:40:06;11.03;;;7.03;;
25497;SDS011;13406;53.380;7.226;2022-10-28T02:42:37;7.73;;;6.20;;
25497;SDS011;13406;53.380;7.226;2022-10-28T02:45:09;12.03;;;6.47;;
25497;SDS011;13406;53.380;7.226;2022-10-28T02:47:40;11.87;;;7.17;;
25497;SDS011;13406;53.380;7.226;2022-10-28T02:50:13;8.03;;;7.20;;
25497;SDS011;13406;53.380;7.226;2022-10-28T02:52:41;10.73;;;6.93;;
25497;SDS011;13406;53.380;7.226;2022-10-28T02:55:12;14.93;;;7.17;;
25497;SDS011;13406;53.380;7.226;2022-10-28T02:57:39;9.40;;;6.80;;
25497;SDS011;13406;53.380;7.226;2022-10-28T03:00:09;11.70;;;6.97;;
25497;SDS011;13406;53.380;7.226;2022-10-28T03:02:38;9.90;;;6.90;;
25497;SDS011;13406;53.380;7.226;2022-10-28T03:05:04;11.33;;;7.00;;
25497;SDS011;13406;53.380;7.226;2022-10-28T03:07:30;9.30;;;6.87;;
25497;SDS011;13406;53.380;7.226;2022-10-28T03:09:55;9.20;;;6.33;;
25497;SDS011;13406;53.380;7.226;2022-10-28T03:12:21;13.23;;;6.10;;
25497;SDS011;13406;53.380;7.226;2022-10-28T03:14:46;13.40;;;7.00;;
25497;SDS011;13406;53.380;7.226;2022-10-28T03:17:12;8.20;;;5.33;;
25497;SDS011;13406;53.380;7.226;2022-10-28T03:19:37;13.13;;;7.07;;
25497;SDS011;13406;53.380;7.226;2022-10-28T03:22:03;10.50;;;6.90;;
25497;SDS011;13406;53.380;7.226;2022-10-28T03:24:28;13.50;;;6.30;;
25497;SDS011;13406;53.380;7.226;2022-10-28T03:26:54;8.40;;;6.47;;
25497;SDS011;13406;53.380;7.226;2022-10-28T03:29:19;12.50;;;6.83;;
25497;SDS011;13406;53.380;7.226;2022-10-28T03:31:45;10.23;;;6.47;;
25497;SDS011;13406;53.380;7.226;2022-10-28T03:34:10;8.63;;;6.83;;
25497;SDS011;13406;53.380;7.226;2022-10-28T03:36:36;8.83;;;5.50;;
25497;SDS011;13406;53.380;7.226;2022-10-28T03:39:01;15.40;;;6.60;;
25497;SDS011;13406;53.380;7.226;2022-10-28T03:41:27;8.60;;;6.23;;
25497;SDS011;13406;53.380;7.226;2022-10-28T03:43:52;11.63;;;8.07;;
25497;SDS011;13406;53.380;7.226;2022-10-28T03:46:18;11.87;;;7.23;;
25497;SDS011;13406;53.380;7.226;2022-10-28T03:48:43;12.00;;;7.40;;
25497;SDS011;13406;53.380;7.226;2022-10-28T03:51:08;14.53;;;8.30;;
25497;SDS011;13406;53.380;7.226;2022-10-28T03:53:34;9.63;;;6.13;;
25497;SDS011;13406;53.380;7.226;2022-10-28T03:56:00;11.00;;;6.80;;
25497;SDS011;13406;53.380;7.226;2022-10-28T03:58:26;8.70;;;6.13;;
25497;SDS011;13406;53.380;7.226;2022-10-28T04:00:52;8.97;;;6.40;;
25497;SDS011;13406;53.380;7.226;2022-10-28T04:03:19;9.20;;;6.57;;
25497;SDS011;13406;53.380;7.226;2022-10-28T04:05:46;10.80;;;7.03;;
25497;SDS011;13406;53.380;7.226;2022-10-28T04:08:15;8.80;;;6.87;;
25497;SDS011;13406;53.380;7.226;2022-10-28T04:10:41;10.63;;;6.43;;
25497;SDS011;13406;53.380;7.226;2022-10-28T04:13:07;9.00;;;6.23;;
25497;SDS011;13406;53.380;7.226;2022-10-28T04:15:33;12.87;;;5.97;;
25497;SDS011;13406;53.380;7.226;2022-10-28T04:17:59;8.90;;;5.23;;
25497;SDS011;13406;53.380;7.226;2022-10-28T04:20:25;6.87;;;5.13;;
25497;SDS011;13406;53.380;7.226;2022-10-28T04:22:51;7.37;;;5.10;;
25497;SDS011;13406;53.380;7.226;2022-10-28T04:25:18;7.53;;;5.70;;
25497;SDS011;13406;53.380;7.226;2022-10-28T04:27:44;9.73;;;6.33;;
25497;SDS011;13406;53.380;7.226;2022-10-28T04:30:10;8.97;;;5.80;;
25497;SDS011;13406;53.380;7.226;2022-10-28T04:32:37;7.53;;;5.60;;
25497;SDS011;13406;53.380;7.226;2022-10-28T04:35:02;7.77;;;6.30;;
25497;SDS011;13406;53.380;7.226;2022-10-28T04:37:28;9.33;;;6.50;;
25497;SDS011;13406;53.380;7.226;2022-10-28T04:39:54;5.83;;;5.00;;
25497;SDS011;13406;53.380;7.226;2022-10-28T04:42:19;8.53;;;6.10;;
25497;SDS011;13406;53.380;7.226;2022-10-28T04:44:44;8.30;;;6.00;;
25497;SDS011;13406;53.380;7.226;2022-10-28T04:47:10;6.33;;;5.13;;
25497;SDS011;13406;53.380;7.226;2022-10-28T04:49:35;7.30;;;5.30;;
25497;SDS011;13406;53.380;7.226;2022-10-28T04:52:01;7.70;;;5.40;;
25497;SDS011;13406;53.380;7.226;2022-10-28T04:54:26;6.93;;;5.80;;
25497;SDS011;13406;53.380;7.226;2022-10-28T04:56:53;8.20;;;5.60;;
25497;SDS011;13406;53.380;7.226;2022-10-28T04:59:18;7.90;;;5.37;;
25497;SDS011;13406;53.380;7.226;2022-10-28T05:01:44;7.33;;;5.73;;
25497;SDS011;13406;53.380;7.226;2022-10-28T05:04:09;10.40;;;5.80;;
25497;SDS011;13406;53.380;7.226;2022-10-28T05:06:35;9.37;;;6.00;;
25497;SDS011;13406;53.380;7.226;2022-10-28T05:09:00;6.90;;;6.20;;
25497;SDS011;13406;53.380;7.226;2022-10-28T05:11:26;10.00;;;5.43;;
25497;SDS011;13406;53.380;7.226;2022-10-28T05:13:51;10.13;;;6.00;;
25497;SDS011;13406;53.380;7.226;2022-10-28T05:16:19;7.20;;;5.57;;
25497;SDS011;13406;53.380;7.226;2022-10-28T05:18:45;8.20;;;5.57;;
25497;SDS011;13406;53.380;7.226;2022-10-28T05:21:10;10.10;;;6.00;;
25497;SDS011;13406;53.380;7.226;2022-10-28T05:23:36;8.40;;;5.90;;
25497;SDS011;13406;53.380;7.226;2022-10-28T05:26:01;10.17;;;6.83;;
25497;SDS011;13406;53.380;7.226;2022-10-28T05:28:27;10.60;;;5.87;;
25497;SDS011;13406;53.380;7.226;2022-10-28T05:30:52;7.73;;;5.53;;
25497;SDS011;13406;53.380;7.226;2022-10-28T05:33:18;9.97;;;6.53;;
25497;SDS011;13406;53.380;7.226;2022-10-28T05:35:43;9.50;;;5.90;;
25497;SDS011;13406;53.380;7.226;2022-10-28T05:38:09;8.30;;;6.30;;
25497;SDS011;13406;53.380;7.226;2022-10-28T05:40:35;12.03;;;5.40;;
25497;SDS011;13406;53.380;7.226;2022-10-28T05:43:00;9.17;;;6.37;;
25497;SDS011;13406;53.380;7.226;2022-10-28T05:45:26;7.90;;;5.87;;
25497;SDS011;13406;53.380;7.226;2022-10-28T05:47:52;11.83;;;6.37;;
25497;SDS011;13406;53.380;7.226;2022-10-28T05:50:18;9.20;;;6.70;;
25497;SDS011;13406;53.380;7.226;2022-10-28T05:52:48;10.50;;;6.10;;
25497;SDS011;13406;53.380;7.226;2022-10-28T05:55:15;10.33;;;6.30;;
25497;SDS011;13406;53.380;7.226;2022-10-28T05:57:43;6.20;;;5.60;;
25497;SDS011;13406;53.380;7.226;2022-10-28T06:00:13;10.83;;;5.30;;
25497;SDS011;13406;53.380;7.226;2022-10-28T06:02:39;7.03;;;5.20;;
25497;SDS011;13406;53.380;7.226;2022-10-28T06:05:05;6.43;;;5.33;;
25497;SDS011;13406;53.380;7.226;2022-10-28T06:07:32;8.67;;;6.13;;
25497;SDS011;13406;53.380;7.226;2022-10-28T06:09:58;9.87;;;5.50;;
25497;SDS011;13406;53.380;7.226;2022-10-28T06:12:24;8.40;;;5.37;;
25497;SDS011;13406;53.380;7.226;2022-10-28T06:14:50;8.53;;;5.07;;
25497;SDS011;13406;53.380;7.226;2022-10-28T06:17:15;10.10;;;6.17;;
25497;SDS011;13406;53.380;7.226;2022-10-28T06:19:41;8.40;;;5.80;;
25497;SDS011;13406;53.380;7.226;2022-10-28T06:22:06;12.50;;;5.50;;
25497;SDS011;13406;53.380;7.226;2022-10-28T06:24:31;9.53;;;5.70;;
25497;SDS011;13406;53.380;7.226;2022-10-28T06:26:57;7.60;;;5.17;;
25497;SDS011;13406;53.380;7.226;2022-10-28T06:29:22;7.30;;;5.53;;
25497;SDS011;13406;53.380;7.226;2022-10-28T06:31:48;7.73;;;4.90;;
25497;SDS011;13406;53.380;7.226;2022-10-28T06:34:13;8.10;;;5.77;;
25497;SDS011;13406;53.380;7.226;2022-10-28T06:36:39;7.93;;;5.27;;
25497;SDS011;13406;53.380;7.226;2022-10-28T06:39:04;7.03;;;5.60;;
25497;SDS011;13406;53.380;7.226;2022-10-28T06:41:30;7.87;;;5.50;;
25497;SDS011;13406;53.380;7.226;2022-10-28T06:43:55;10.93;;;5.40;;
25497;SDS011;13406;53.380;7.226;2022-10-28T06:46:21;8.27;;;5.60;;
25497;SDS011;13406;53.380;7.226;2022-10-28T06:48:47;8.77;;;5.43;;
25497;SDS011;13406;53.380;7.226;2022-10-28T06:51:12;8.90;;;5.43;;
25497;SDS011;13406;53.380;7.226;2022-10-28T06:53:38;7.00;;;5.73;;
25497;SDS011;13406;53.380;7.226;2022-10-28T06:56:03;6.33;;;5.00;;
25497;SDS011;13406;53.380;7.226;2022-10-28T06:58:29;9.60;;;5.10;;
25497;SDS011;13406;53.380;7.226;2022-10-28T07:00:54;12.43;;;5.80;;
25497;SDS011;13406;53.380;7.226;2022-10-28T07:03:20;10.40;;;6.17;;
25497;SDS011;13406;53.380;7.226;2022-10-28T07:05:46;9.20;;;5.20;;
25497;SDS011;13406;53.380;7.226;2022-10-28T07:08:13;9.83;;;5.87;;
25497;SDS011;13406;53.380;7.226;2022-10-28T07:10:39;8.00;;;5.60;;
25497;SDS011;13406;53.380;7.226;2022-10-28T07:13:05;9.50;;;5.10;;
25497;SDS011;13406;53.380;7.226;2022-10-28T07:15:31;7.27;;;5.27;;
25497;SDS011;13406;53.380;7.226;2022-10-28T07:17:57;7.50;;;5.20;;
25497;SDS011;13406;53.380;7.226;2022-10-28T07:20:24;10.40;;;5.57;;
25497;SDS011;13406;53.380;7.226;2022-10-28T07:22:58;8.63;;;5.47;;
25497;SDS011;13406;53.380;7.226;2022-10-28T07:25:25;9.63;;;4.93;;
25497;SDS011;13406;53.380;7.226;2022-10-28T07:27:51;7.97;;;4.70;;
25497;SDS011;13406;53.380;7.226;2022-10-28T07:30:16;6.83;;;4.30;;
25497;SDS011;13406;53.380;7.226;2022-10-28T07:32:42;9.90;;;5.23;;
25497;SDS011;13406;53.380;7.226;2022-10-28T07:35:08;11.53;;;5.40;;
25497;SDS011;13406;53.380;7.226;2022-10-28T07:37:33;12.67;;;5.60;;
25497;SDS011;13406;53.380;7.226;2022-10-28T07:39:58;9.37;;;5.40;;
25497;SDS011;13406;53.380;7.226;2022-10-28T07:42:24;9.80;;;5.17;;
25497;SDS011;13406;53.380;7.226;2022-10-28T07:44:49;11.27;;;6.67;;
25497;SDS011;13406;53.380;7.226;2022-10-28T07:47:15;11.43;;;6.23;;
25497;SDS011;13406;53.380;7.226;2022-10-28T07:49:41;12.70;;;6.53;;
25497;SDS011;13406;53.380;7.226;2022-10-28T07:54:36;13.30;;;5.73;;
25497;SDS011;13406;53.380;7.226;2022-10-28T07:57:01;8.10;;;5.37;;
25497;SDS011;13406;53.380;7.226;2022-10-28T07:59:27;11.43;;;5.90;;
25497;SDS011;13406;53.380;7.226;2022-10-28T08:01:52;7.80;;;5.37;;
25497;SDS011;13406;53.380;7.226;2022-10-28T08:04:18;14.40;;;5.93;;
25497;SDS011;13406;53.380;7.226;2022-10-28T08:06:44;11.53;;;5.70;;
25497;SDS011;13406;53.380;7.226;2022-10-28T08:09:09;7.80;;;5.37;;
25497;SDS011;13406;53.380;7.226;2022-10-28T08:11:35;13.53;;;6.03;;
25497;SDS011;13406;53.380;7.226;2022-10-28T08:14:00;12.70;;;6.57;;
25497;SDS011;13406;53.380;7.226;2022-10-28T08:16:26;13.27;;;6.60;;
25497;SDS011;13406;53.380;7.226;2022-10-28T08:18:53;20.77;;;6.57;;
25497;SDS011;13406;53.380;7.226;2022-10-28T08:21:20;13.87;;;6.10;;
25497;SDS011;13406;53.380;7.226;2022-10-28T08:23:47;12.40;;;5.93;;
25497;SDS011;13406;53.380;7.226;2022-10-28T08:26:13;9.27;;;5.30;;
25497;SDS011;13406;53.380;7.226;2022-10-28T08:28:40;12.60;;;5.73;;
25497;SDS011;13406;53.380;7.226;2022-10-28T08:31:06;14.37;;;5.77;;
25497;SDS011;13406;53.380;7.226;2022-10-28T08:33:37;11.90;;;6.60;;
25497;SDS011;13406;53.380;7.226;2022-10-28T08:36:04;12.13;;;6.03;;
25497;SDS011;13406;53.380;7.226;2022-10-28T08:38:31;16.17;;;6.90;;
25497;SDS011;13406;53.380;7.226;2022-10-28T08:46:31;11.07;;;6.73;;
25497;SDS011;13406;53.380;7.226;2022-10-28T08:49:16;13.10;;;5.37;;
25497;SDS011;13406;53.380;7.226;2022-10-28T08:54:44;11.97;;;7.00;;
25497;SDS011;13406;53.380;7.226;2022-10-28T08:57:15;17.87;;;6.93;;
25497;SDS011;13406;53.380;7.226;2022-10-28T08:59:45;11.00;;;6.07;;
25497;SDS011;13406;53.380;7.226;2022-10-28T09:02:18;8.40;;;5.60;;
25497;SDS011;13406;53.380;7.226;2022-10-28T09:04:46;13.53;;;6.77;;
25497;SDS011;13406;53.380;7.226;2022-10-28T09:07:17;16.43;;;6.67;;
25497;SDS011;13406;53.380;7.226;2022-10-28T09:09:45;10.47;;;6.23;;
25497;SDS011;13406;53.380;7.226;2022-10-28T09:17:52;14.47;;;6.10;;
25497;SDS011;13406;53.380;7.226;2022-10-28T09:20:25;10.80;;;5.77;;
25497;SDS011;13406;53.380;7.226;2022-10-28T09:23:05;13.13;;;5.47;;
25497;SDS011;13406;53.380;7.226;2022-10-28T09:25:45;11.90;;;6.83;;
25497;SDS011;13406;53.380;7.226;2022-10-28T09:31:13;13.30;;;6.10;;
25497;SDS011;13406;53.380;7.226;2022-10-28T09:33:52;10.13;;;6.13;;
25497;SDS011;13406;53.380;7.226;2022-10-28T09:36:35;11.90;;;6.60;;
25497;SDS011;13406;53.380;7.226;2022-10-28T09:39:05;10.43;;;5.90;;
25497;SDS011;13406;53.380;7.226;2022-10-28T09:41:40;11.53;;;6.60;;
25497;SDS011;13406;53.380;7.226;2022-10-28T09:44:21;17.90;;;7.03;;
25497;SDS011;13406;53.380;7.226;2022-10-28T09:46:56;15.63;;;6.80;;
25497;SDS011;13406;53.380;7.226;2022-10-28T09:49:25;15.90;;;7.57;;
25497;SDS011;13406;53.380;7.226;2022-10-28T09:51:58;13.87;;;7.30;;
25497;SDS011;13406;53.380;7.226;2022-10-28T09:54:36;13.10;;;6.53;;
25497;SDS011;13406;53.380;7.226;2022-10-28T09:57:07;15.23;;;6.10;;
25497;SDS011;13406;53.380;7.226;2022-10-28T09:59:32;10.93;;;6.00;;
25497;SDS011;13406;53.380;7.226;2022-10-28T10:01:58;10.30;;;6.40;;
25497;SDS011;13406;53.380;7.226;2022-10-28T10:04:24;15.00;;;6.90;;
25497;SDS011;13406;53.380;7.226;2022-10-28T10:06:53;12.07;;;6.30;;
25497;SDS011;13406;53.380;7.226;2022-10-28T10:09:23;9.93;;;5.47;;
25497;SDS011;13406;53.380;7.226;2022-10-28T10:11:52;16.37;;;7.60;;
25497;SDS011;13406;53.380;7.226;2022-10-28T10:14:24;15.00;;;6.07;;
25497;SDS011;13406;53.380;7.226;2022-10-28T10:17:02;13.53;;;5.90;;
25497;SDS011;13406;53.380;7.226;2022-10-28T10:22:29;12.37;;;6.00;;
25497;SDS011;13406;53.380;7.226;2022-10-28T10:24:56;11.30;;;6.50;;
25497;SDS011;13406;53.380;7.226;2022-10-28T10:27:22;17.30;;;7.07;;
25497;SDS011;13406;53.380;7.226;2022-10-28T10:29:50;15.57;;;6.47;;
25497;SDS011;13406;53.380;7.226;2022-10-28T10:34:53;18.17;;;6.40;;
25497;SDS011;13406;53.380;7.226;2022-10-28T10:37:20;12.13;;;5.67;;
25497;SDS011;13406;53.380;7.226;2022-10-28T10:42:41;17.03;;;6.13;;
25497;SDS011;13406;53.380;7.226;2022-10-28T10:47:38;10.77;;;5.50;;
25497;SDS011;13406;53.380;7.226;2022-10-28T10:56:07;14.40;;;6.00;;
25497;SDS011;13406;53.380;7.226;2022-10-28T10:58:38;11.90;;;6.13;;
25497;SDS011;13406;53.380;7.226;2022-10-28T11:01:14;19.30;;;6.20;;
25497;SDS011;13406;53.380;7.226;2022-10-28T11:03:48;10.23;;;5.57;;
25497;SDS011;13406;53.380;7.226;2022-10-28T11:06:22;12.23;;;5.80;;
25497;SDS011;13406;53.380;7.226;2022-10-28T11:08:55;9.87;;;5.60;;
25497;SDS011;13406;53.380;7.226;2022-10-28T11:11:41;8.60;;;5.20;;
25497;SDS011;13406;53.380;7.226;2022-10-28T11:16:47;11.40;;;5.67;;
25497;SDS011;13406;53.380;7.226;2022-10-28T11:19:22;13.07;;;4.90;;
25497;SDS011;13406;53.380;7.226;2022-10-28T11:25:31;18.57;;;6.10;;
25497;SDS011;13406;53.380;7.226;2022-10-28T11:31:19;11.23;;;5.67;;
25497;SDS011;13406;53.380;7.226;2022-10-28T11:34:05;12.27;;;6.00;;
25497;SDS011;13406;53.380;7.226;2022-10-28T11:39:33;14.47;;;5.80;;
25497;SDS011;13406;53.380;7.226;2022-10-28T11:42:18;12.33;;;5.43;;
25497;SDS011;13406;53.380;7.226;2022-10-28T11:47:46;11.60;;;5.20;;
25497;SDS011;13406;53.380;7.226;2022-10-28T11:55:24;9.33;;;4.37;;
25497;SDS011;13406;53.380;7.226;2022-10-28T11:58:08;8.37;;;5.40;;
25497;SDS011;13406;53.380;7.226;2022-10-28T12:08:58;10.50;;;3.97;;
25497;SDS011;13406;53.380;7.226;2022-10-28T12:11:43;13.90;;;4.70;;
25497;SDS011;13406;53.380;7.226;2022-10-28T12:23:12;10.47;;;4.30;;
25497;SDS011;13406;53.380;7.226;2022-10-28T12:25:42;8.20;;;4.13;;
25497;SDS011;13406;53.380;7.226;2022-10-28T12:28:23;9.03;;;3.97;;
25497;SDS011;13406;53.380;7.226;2022-10-28T12:30:54;10.20;;;3.90;;
25497;SDS011;13406;53.380;7.226;2022-10-28T12:36:09;17.10;;;4.50;;
25497;SDS011;13406;53.380;7.226;2022-10-28T12:38:44;11.00;;;4.10;;
25497;SDS011;13406;53.380;7.226;2022-10-28T12:41:39;12.90;;;4.30;;
25497;SDS011;13406;53.380;7.226;2022-10-28T12:44:08;9.30;;;4.33;;
25497;SDS011;13406;53.380;7.226;2022-10-28T12:52:35;10.23;;;3.90;;
25497;SDS011;13406;53.380;7.226;2022-10-28T12:57:36;10.83;;;4.10;;
25497;SDS011;13406;53.380;7.226;2022-10-28T13:02:58;11.20;;;4.87;;
25497;SDS011;13406;53.380;7.226;2022-10-28T13:05:49;14.20;;;4.90;;
25497;SDS011;13406;53.380;7.226;2022-10-28T13:08:40;11.40;;;5.43;;
25497;SDS011;13406;53.380;7.226;2022-10-28T13:19:58;16.83;;;6.00;;
25497;SDS011;13406;53.380;7.226;2022-10-28T13:25:29;10.13;;;5.40;;
25497;SDS011;13406;53.380;7.226;2022-10-28T13:28:24;17.20;;;5.90;;
25497;SDS011;13406;53.380;7.226;2022-10-28T13:30:59;12.40;;;5.27;;
25497;SDS011;13406;53.380;7.226;2022-10-28T13:33:28;13.57;;;5.87;;
25497;SDS011;13406;53.380;7.226;2022-10-28T13:36:05;14.73;;;5.80;;
25497;SDS011;13406;53.380;7.226;2022-10-28T13:38:40;13.07;;;5.83;;
25497;SDS011;13406;53.380;7.226;2022-10-28T13:41:07;14.50;;;5.47;;
25497;SDS011;13406;53.380;7.226;2022-10-28T13:46:37;15.13;;;5.20;;
25497;SDS011;13406;53.380;7.226;2022-10-28T13:49:29;13.50;;;5.40;;
25497;SDS011;13406;53.380;7.226;2022-10-28T13:52:03;14.70;;;5.70;;
25497;SDS011;13406;53.380;7.226;2022-10-28T13:59:57;11.90;;;5.10;;
25497;SDS011;13406;53.380;7.226;2022-10-28T14:02:38;10.00;;;4.27;;
25497;SDS011;13406;53.380;7.226;2022-10-28T14:05:09;9.07;;;5.23;;
25497;SDS011;13406;53.380;7.226;2022-10-28T14:07:37;12.10;;;5.10;;
25497;SDS011;13406;53.380;7.226;2022-10-28T14:10:20;12.20;;;5.10;;
25497;SDS011;13406;53.380;7.226;2022-10-28T14:12:48;14.33;;;5.50;;
25497;SDS011;13406;53.380;7.226;2022-10-28T14:15:33;10.13;;;5.17;;
25497;SDS011;13406;53.380;7.226;2022-10-28T14:18:03;16.53;;;5.90;;
25497;SDS011;13406;53.380;7.226;2022-10-28T14:20:42;8.60;;;5.13;;
25497;SDS011;13406;53.380;7.226;2022-10-28T14:44:58;10.03;;;5.00;;
25497;SDS011;13406;53.380;7.226;2022-10-28T14:47:35;13.70;;;5.63;;
25497;SDS011;13406;53.380;7.226;2022-10-28T14:50:21;9.73;;;5.37;;
25497;SDS011;13406;53.380;7.226;2022-10-28T14:52:49;11.03;;;5.50;;
25497;SDS011;13406;53.380;7.226;2022-10-28T14:55:28;13.43;;;4.77;;
25497;SDS011;13406;53.380;7.226;2022-10-28T14:58:15;10.43;;;4.73;;
25497;SDS011;13406;53.380;7.226;2022-10-28T15:00:52;13.90;;;4.90;;
25497;SDS011;13406;53.380;7.226;2022-10-28T15:03:55;11.33;;;5.40;;
25497;SDS011;13406;53.380;7.226;2022-10-28T15:06:23;10.57;;;6.53;;
25497;SDS011;13406;53.380;7.226;2022-10-28T15:08:49;13.67;;;5.30;;
25497;SDS011;13406;53.380;7.226;2022-10-28T15:11:15;6.23;;;4.90;;
25497;SDS011;13406;53.380;7.226;2022-10-28T15:13:41;8.93;;;4.97;;
25497;SDS011;13406;53.380;7.226;2022-10-28T15:16:23;9.20;;;4.90;;
25497;SDS011;13406;53.380;7.226;2022-10-28T15:18:50;10.50;;;5.37;;
25497;SDS011;13406;53.380;7.226;2022-10-28T15:21:18;16.27;;;5.67;;
25497;SDS011;13406;53.380;7.226;2022-10-28T15:24:00;9.80;;;5.50;;
25497;SDS011;13406;53.380;7.226;2022-10-28T15:26:26;11.63;;;5.37;;
25497;SDS011;13406;53.380;7.226;2022-10-28T15:28:52;11.80;;;5.17;;
25497;SDS011;13406;53.380;7.226;2022-10-28T15:31:19;12.23;;;5.80;;
25497;SDS011;13406;53.380;7.226;2022-10-28T15:33:44;19.93;;;6.00;;
25497;SDS011;13406;53.380;7.226;2022-10-28T15:36:20;13.10;;;5.93;;
25497;SDS011;13406;53.380;7.226;2022-10-28T15:38:50;11.20;;;5.77;;
25497;SDS011;13406;53.380;7.226;2022-10-28T15:44:00;11.93;;;5.70;;
25497;SDS011;13406;53.380;7.226;2022-10-28T15:46:26;19.07;;;6.17;;
25497;SDS011;13406;53.380;7.226;2022-10-28T15:48:53;12.60;;;6.60;;
25497;SDS011;13406;53.380;7.226;2022-10-28T15:51:24;12.00;;;5.10;;
25497;SDS011;13406;53.380;7.226;2022-10-28T15:53:51;6.60;;;4.60;;
25497;SDS011;13406;53.380;7.226;2022-10-28T15:56:24;14.10;;;4.40;;
25497;SDS011;13406;53.380;7.226;2022-10-28T16:01:54;13.53;;;5.70;;
25497;SDS011;13406;53.380;7.226;2022-10-28T16:06:48;12.13;;;5.60;;
25497;SDS011;13406;53.380;7.226;2022-10-28T16:09:18;14.33;;;6.33;;
25497;SDS011;13406;53.380;7.226;2022-10-28T16:11:51;14.43;;;5.70;;
25497;SDS011;13406;53.380;7.226;2022-10-28T16:14:35;8.43;;;5.13;;
25497;SDS011;13406;53.380;7.226;2022-10-28T16:17:09;18.87;;;6.07;;
25497;SDS011;13406;53.380;7.226;2022-10-28T16:19:50;12.20;;;6.07;;
25497;SDS011;13406;53.380;7.226;2022-10-28T16:22:16;10.30;;;5.10;;
25497;SDS011;13406;53.380;7.226;2022-10-28T16:24:43;10.60;;;4.77;;
25497;SDS011;13406;53.380;7.226;2022-10-28T16:29:40;13.10;;;4.50;;
25497;SDS011;13406;53.380;7.226;2022-10-28T16:32:06;14.73;;;7.40;;
25497;SDS011;13406;53.380;7.226;2022-10-28T16:34:34;14.30;;;5.00;;
25497;SDS011;13406;53.380;7.226;2022-10-28T16:36:59;10.03;;;4.53;;
25497;SDS011;13406;53.380;7.226;2022-10-28T16:39:25;22.67;;;5.97;;
25497;SDS011;13406;53.380;7.226;2022-10-28T16:41:50;17.03;;;5.90;;
25497;SDS011;13406;53.380;7.226;2022-10-28T16:44:18;10.47;;;4.50;;
25497;SDS011;13406;53.380;7.226;2022-10-28T16:46:44;18.40;;;6.90;;
25497;SDS011;13406;53.380;7.226;2022-10-28T16:49:09;16.43;;;5.30;;
25497;SDS011;13406;53.380;7.226;2022-10-28T16:51:35;12.77;;;4.90;;
25497;SDS011;13406;53.380;7.226;2022-10-28T16:54:00;9.47;;;4.57;;
25497;SDS011;13406;53.380;7.226;2022-10-28T16:56:26;15.40;;;5.33;;
25497;SDS011;13406;53.380;7.226;2022-10-28T16:58:51;10.67;;;5.33;;
25497;SDS011;13406;53.380;7.226;2022-10-28T17:01:18;10.67;;;4.77;;
25497;SDS011;13406;53.380;7.226;2022-10-28T17:03:45;11.30;;;5.33;;
25497;SDS011;13406;53.380;7.226;2022-10-28T17:06:10;7.37;;;3.93;;
25497;SDS011;13406;53.380;7.226;2022-10-28T17:08:36;11.43;;;4.80;;
25497;SDS011;13406;53.380;7.226;2022-10-28T17:11:01;13.73;;;5.00;;
25497;SDS011;13406;53.380;7.226;2022-10-28T17:13:28;12.43;;;4.47;;
25497;SDS011;13406;53.380;7.226;2022-10-28T17:15:54;11.47;;;5.63;;
25497;SDS011;13406;53.380;7.226;2022-10-28T17:18:20;14.37;;;6.40;;
25497;SDS011;13406;53.380;7.226;2022-10-28T17:20:56;14.00;;;5.20;;
25497;SDS011;13406;53.380;7.226;2022-10-28T17:23:22;17.00;;;5.33;;
25497;SDS011;13406;53.380;7.226;2022-10-28T17:25:54;10.97;;;4.67;;
25497;SDS011;13406;53.380;7.226;2022-10-28T17:28:21;14.20;;;4.53;;
25497;SDS011;13406;53.380;7.226;2022-10-28T17:30:46;9.33;;;4.53;;
25497;SDS011;13406;53.380;7.226;2022-10-28T17:33:11;11.50;;;6.10;;
25497;SDS011;13406;53.380;7.226;2022-10-28T17:35:37;12.07;;;4.67;;
25497;SDS011;13406;53.380;7.226;2022-10-28T17:38:02;14.27;;;5.33;;
25497;SDS011;13406;53.380;7.226;2022-10-28T17:40:27;14.60;;;5.13;;
25497;SDS011;13406;53.380;7.226;2022-10-28T17:42:56;13.93;;;4.80;;
25497;SDS011;13406;53.380;7.226;2022-10-28T17:45:22;13.20;;;4.77;;